tititudorancea.com
Station Historical Data
Daily Summary for August 29, 2018 Units:  Metric    English   Both
« Previous Day
Next Day »
Daily Weekly Monthly Yearly Custom
  High: Low: Average:
Temperature: -17.8 °C -2.9 °C 5.6 °C
Dew Point: -17.8 °C -3.9 °C 1 °C
Humidity: Humidity % 51 % 74 %
Wind Speed: 0 km/h 0 km/h 5.6 km/h
Wind Gust: 0 km/h - -
Wind:- - West
Pressure: 0 hPa 1016.1 hPa -
Precipitation: 0 mm    
Historical Graphs
 
 
Ararat weather Find more about Weather in Ararat, AU


 



 


Tabular Data for August 29, 2018
Time Temperature Dew Point Pressure Wind Wind Speed Wind Gust Humidity Rainfall Rate (Hourly)
-17.8 °C -17.8 °C 0 hPa Calm     Humidity % 0 mm
00:04 -0.1 °C -1.5 °C 1021.9 hPa Calm     90 % 0 mm
00:09 0 °C -1.3 °C 1021.9 hPa Calm     91 % 0 mm
00:14 0.1 °C -1.2 °C 1021.9 hPa Calm     91 % 0 mm
00:19 0.1 °C -1.2 °C 1021.9 hPa Calm     91 % 0 mm
00:24 0.1 °C -1.2 °C 1021.9 hPa Calm     91 % 0 mm
00:29 0.1 °C -1.4 °C 1021.9 hPa Calm     90 % 0 mm
00:34 -0.1 °C -1.5 °C 1022.2 hPa Calm     90 % 0 mm
00:39 -0.2 °C -1.4 °C 1022.2 hPa Calm     91 % 0 mm
00:44 -0.3 °C -1.7 °C 1022.2 hPa Calm     90 % 0 mm
00:49 -0.3 °C -1.6 °C 1022.2 hPa Calm     91 % 0 mm
00:54 -0.4 °C -1.7 °C 1022.2 hPa Calm     91 % 0 mm
00:59 -0.5 °C -1.8 °C 1022.2 hPa Calm     91 % 0 mm
01:04 -0.6 °C -1.8 °C 1022.2 hPa Calm     91 % 0 mm
01:09 -0.7 °C -1.9 °C 1021.9 hPa Calm     91 % 0 mm
01:14 -0.8 °C -2.1 °C 1021.9 hPa Calm     91 % 0 mm
01:19 -0.9 °C -2.2 °C 1021.9 hPa Calm     91 % 0 mm
01:24 -1.1 °C -2.3 °C 1021.9 hPa Calm     91 % 0 mm
01:29 -1.1 °C -2.4 °C 1021.9 hPa Calm     91 % 0 mm
01:34 -1.2 °C -2.4 °C 1021.9 hPa Calm     91 % 0 mm
01:39 -1.2 °C -2.3 °C 1021.9 hPa Calm     92 % 0 mm
01:44 -1.2 °C -2.5 °C 1021.9 hPa Calm     91 % 0 mm
01:49 -1.3 °C -2.6 °C 1021.9 hPa Calm     91 % 0 mm
01:54 -1.3 °C -2.6 °C 1021.9 hPa Calm     91 % 0 mm
01:59 -1.4 °C -2.7 °C 1021.9 hPa Calm     91 % 0 mm
02:04 -1.5 °C -2.8 °C 1021.9 hPa Calm     91 % 0 mm
02:09 -1.6 °C -2.7 °C 1021.9 hPa Calm     92 % 0 mm
02:14 -1.6 °C -2.7 °C 1021.9 hPa Calm     92 % 0 mm
02:19 -1.6 °C -2.7 °C 1021.9 hPa Calm     92 % 0 mm
02:24 -1.6 °C -2.7 °C 1021.9 hPa Calm     92 % 0 mm
02:29 -1.7 °C -2.8 °C 1021.9 hPa Calm     92 % 0 mm
02:34 -1.8 °C -2.9 °C 1021.9 hPa Calm     92 % 0 mm
02:39 -1.9 °C -3.2 °C 1021.9 hPa Calm     91 % 0 mm
02:44 -2.1 °C -3.2 °C 1021.6 hPa Calm     92 % 0 mm
02:49 -2.1 °C -3.2 °C 1021.6 hPa Calm     92 % 0 mm
02:54 -2 °C -3 °C 1021.6 hPa Calm     93 % 0 mm
02:59 -1.8 °C -2.8 °C 1021.2 hPa SSE 3.2 km/h 1.3 km/h 93 % 0 mm
03:04 -1.4 °C -2.4 °C 1021.2 hPa SSE 1.9 km/h 0.3 km/h 93 % 0 mm
03:09 -1.4 °C -2.4 °C 1021.2 hPa SSE 3.7 km/h 2.3 km/h 93 % 0 mm
03:14 -1.4 °C -2.4 °C 1021.2 hPa Calm     93 % 0 mm
03:19 -1.3 °C -2.3 °C 1020.9 hPa Calm     93 % 0 mm
03:24 -1.4 °C -2.4 °C 1020.9 hPa Calm     93 % 0 mm
03:29 -1.4 °C -2.4 °C 1020.9 hPa Calm     93 % 0 mm
03:34 -1.5 °C -2.6 °C 1020.9 hPa Calm     92 % 0 mm
03:39 -1.6 °C -2.7 °C 1020.9 hPa Calm     92 % 0 mm
03:44 -1.7 °C -2.8 °C 1020.9 hPa Calm     92 % 0 mm
03:49 -1.8 °C -2.9 °C 1020.9 hPa Calm     92 % 0 mm
03:54 -1.8 °C -2.8 °C 1020.9 hPa Calm     93 % 0 mm
03:59 -1.9 °C -3 °C 1020.9 hPa Calm     92 % 0 mm
04:04 -2 °C -3.1 °C 1020.9 hPa Calm     92 % 0 mm
04:09 -2.1 °C -3.1 °C 1020.9 hPa Calm     93 % 0 mm
04:14 -2.2 °C -3.2 °C 1020.9 hPa Calm     93 % 0 mm
04:19 -2.2 °C -3.2 °C 1020.9 hPa Calm     93 % 0 mm
04:24 -2.2 °C -3.2 °C 1020.9 hPa Calm     93 % 0 mm
04:29 -2.2 °C -3.2 °C 1020.9 hPa Calm     93 % 0 mm
04:34 -2.2 °C -3.2 °C 1020.9 hPa Calm     93 % 0 mm
04:39 -2.3 °C -3.3 °C 1020.5 hPa Calm     93 % 0 mm
04:44 -2.3 °C -3.3 °C 1020.5 hPa Calm     93 % 0 mm
04:49 -2.3 °C -3.3 °C 1020.5 hPa Calm     93 % 0 mm
04:54 -2.5 °C -3.6 °C 1020.5 hPa Calm     92 % 0 mm
04:59 -2.6 °C -3.7 °C 1020.5 hPa SSE 1.9 km/h 2.3 km/h 92 % 0 mm
05:04 -2.7 °C -3.7 °C 1020.5 hPa Calm     93 % 0 mm
05:09 -2.5 °C -3.5 °C 1020.5 hPa Calm     93 % 0 mm
05:14 -2.4 °C -3.4 °C 1020.5 hPa Calm     93 % 0 mm
05:19 -2.4 °C -3.4 °C 1020.5 hPa Calm     93 % 0 mm
05:24 -2.6 °C -3.7 °C 1020.9 hPa Calm     92 % 0 mm
05:29 -2.7 °C -3.7 °C 1020.9 hPa Calm     93 % 0 mm
05:34 -2.6 °C -3.6 °C 1020.9 hPa SSE 3.7 km/h 2.6 km/h 93 % 0 mm
05:39 -2.5 °C -3.5 °C 1020.9 hPa Calm     93 % 0 mm
05:44 -2.3 °C -3.2 °C 1021.2 hPa SSE 1.9 km/h   94 % 0 mm
05:49 -2.2 °C -3.1 °C 1021.2 hPa Calm     94 % 0 mm
05:54 -2.1 °C -2.9 °C 1021.2 hPa Calm     94 % 0 mm
05:59 -2.1 °C -2.9 °C 1021.2 hPa North 3.7 km/h 2.7 km/h 94 % 0 mm
06:04 -2 °C -3 °C 1021.2 hPa SSE 3.7 km/h 2.3 km/h 93 % 0 mm
06:09 -1.9 °C -2.8 °C 1021.2 hPa North 3.7 km/h 1.6 km/h 94 % 0 mm
06:14 -2 °C -3 °C 1021.2 hPa Calm     93 % 0 mm
06:19 -2 °C -3 °C 1021.2 hPa Calm     93 % 0 mm
06:24 -2 °C -3 °C 1021.2 hPa Calm     93 % 0 mm
06:29 -2 °C -2.8 °C 1021.2 hPa Calm     94 % 0 mm
06:34 -2 °C -3 °C 1021.2 hPa Calm     93 % 0 mm
06:39 -2.1 °C -3.1 °C 1021.2 hPa Calm     93 % 0 mm
06:44 -2.2 °C -3.2 °C 1021.2 hPa SSE 3.2 km/h 2.7 km/h 93 % 0 mm
06:49 -2.4 °C -3.4 °C 1021.2 hPa Calm     93 % 0 mm
06:54 -2.6 °C -3.6 °C 1021.2 hPa Calm     93 % 0 mm
06:59 -2.6 °C -3.6 °C 1021.2 hPa SSE 1.9 km/h   93 % 0 mm
07:04 -2.7 °C -3.7 °C 1021.2 hPa Calm     93 % 0 mm
07:09 -2.8 °C -3.8 °C 1021.6 hPa Calm     93 % 0 mm
07:14 -2.8 °C -3.8 °C 1021.6 hPa Calm     93 % 0 mm
07:19 -2.9 °C -3.9 °C 1021.2 hPa SSE 1.9 km/h 1.1 km/h 93 % 0 mm
07:24 -2.8 °C -3.8 °C 1021.2 hPa SSE 3.7 km/h 2.1 km/h 93 % 0 mm
07:29 -2.7 °C -3.5 °C 1021.2 hPa Calm     94 % 0 mm
07:34 -2.6 °C -3.6 °C 1021.2 hPa Calm     93 % 0 mm
07:39 -2.4 °C -3.3 °C 1021.6 hPa Calm     94 % 0 mm
07:44 -2.2 °C -3.1 °C 1021.6 hPa SSE 3.7 km/h   94 % 0 mm
07:49 -2.1 °C -2.9 °C 1021.6 hPa Calm     94 % 0 mm
07:54 -1.8 °C -2.6 °C 1021.6 hPa Calm     94 % 0 mm
07:59 -1.4 °C -2.3 °C 1021.6 hPa Calm     94 % 0 mm
08:04 -0.9 °C -1.6 °C 1021.6 hPa Calm     95 % 0 mm
08:09 -0.6 °C -1.3 °C 1021.6 hPa Calm     95 % 0 mm
08:14 -0.2 °C -0.9 °C 1021.9 hPa Calm     95 % 0 mm
08:19 0.2 °C -0.5 °C 1021.6 hPa Calm     95 % 0 mm
08:24 0.9 °C 0.3 °C 1021.6 hPa SSE 1.6 km/h 1.1 km/h 96 % 0 mm
08:29 1.6 °C 1 °C 1021.6 hPa SSE 1.9 km/h   96 % 0 mm
08:34 2.1 °C 1.6 °C 1021.6 hPa SSE 3.7 km/h 1.4 km/h 96 % 0 mm
08:39 2.6 °C 1.9 °C 1021.6 hPa SSE 3.7 km/h 2.7 km/h 95 % 0 mm
08:44 3.2 °C 2.4 °C 1021.6 hPa SSE 3.2 km/h   95 % 0 mm
08:49 3.8 °C 2.9 °C 1021.6 hPa SSE 3.7 km/h 0.6 km/h 94 % 0 mm
08:54 4.1 °C 2.9 °C 1021.6 hPa Calm     92 % 0 mm
08:59 4.7 °C 3.3 °C 1021.6 hPa SSE 1.9 km/h 1.3 km/h 91 % 0 mm
09:04 5.2 °C 3.2 °C 1021.9 hPa SSE 3.7 km/h 1.3 km/h 87 % 0 mm
09:09 5.7 °C 3.2 °C 1021.6 hPa Calm   0.5 km/h 84 % 0 mm
09:14 5.8 °C 2.4 °C 1021.9 hPa SSE 1.9 km/h   79 % 0 mm
09:19 6.1 °C 2.6 °C 1021.9 hPa SSE 1.9 km/h 0.2 km/h 78 % 0 mm
09:24 6.3 °C 2.1 °C 1021.9 hPa SSE 7.4 km/h 4.2 km/h 74 % 0 mm
09:29 6.6 °C 2.1 °C 1021.9 hPa SSE 6.4 km/h 6.9 km/h 73 % 0 mm
09:34 6.9 °C 2.2 °C 1021.9 hPa SSE 7.4 km/h 5.3 km/h 72 % 0 mm
09:39 7 °C 1.9 °C 1021.9 hPa SSE 9.3 km/h 7.9 km/h 70 % 0 mm
09:44 7.2 °C 2.1 °C 1021.6 hPa SSE 11.1 km/h 9 km/h 70 % 0 mm
09:49 7.4 °C 2.3 °C 1021.6 hPa SSE 7.4 km/h 5.5 km/h 70 % 0 mm
09:54 7.6 °C 2.5 °C 1021.6 hPa SSE 9.7 km/h 8.2 km/h 70 % 0 mm
09:59 7.9 °C 2.6 °C 1021.6 hPa SSE 8 km/h 8.2 km/h 69 % 0 mm
10:04 8.2 °C 2.4 °C 1021.6 hPa SSE 13 km/h 10 km/h 67 % 0 mm
10:09 8.2 °C 2.2 °C 1021.6 hPa SE 13 km/h 11.4 km/h 66 % 0 mm
10:14 8.3 °C 2.8 °C 1021.2 hPa ESE 6.4 km/h 4.8 km/h 68 % 0 mm
10:19 8.6 °C 2.6 °C 1021.6 hPa ESE 8 km/h 7.4 km/h 66 % 0 mm
10:24 8.7 °C 2.5 °C 1021.6 hPa ESE 11.1 km/h 8.9 km/h 65 % 0 mm
10:29 9.1 °C 2.7 °C 1021.2 hPa ESE 13 km/h 7.1 km/h 64 % 0 mm
10:34 9.4 °C 2.4 °C 1021.2 hPa ESE 11.1 km/h 6.4 km/h 62 % 0 mm
10:39 9.7 °C 2.6 °C 1021.6 hPa ESE 9.3 km/h 8.7 km/h 61 % 0 mm
10:44 9.8 °C 2.6 °C 1021.6 hPa East 7.4 km/h 7.6 km/h 61 % 0 mm
10:49 9.8 °C 2.4 °C 1021.6 hPa East 9.3 km/h 5.6 km/h 60 % 0 mm
10:54 9.7 °C 2.6 °C 1021.6 hPa ENE 8 km/h 6.8 km/h 61 % 0 mm
10:59 9.9 °C 2.5 °C 1021.2 hPa ENE 7.4 km/h 4.5 km/h 60 % 0 mm
11:04 10.1 °C 2.6 °C 1021.2 hPa NE 16.7 km/h 10.3 km/h 60 % 0 mm
11:09 9.7 °C 2.6 °C 1021.2 hPa NE 8 km/h 5.8 km/h 61 % 0 mm
11:14 9.5 °C 2.1 °C 1021.2 hPa NE 11.1 km/h 7.4 km/h 60 % 0 mm
11:19 9.4 °C 2 °C 1021.2 hPa NE 11.3 km/h 8.9 km/h 60 % 0 mm
11:24 9.4 °C 2.3 °C 1021.2 hPa NE 8 km/h 8.2 km/h 61 % 0 mm
11:29 9.5 °C 2.1 °C 1021.2 hPa NE 13 km/h 9.3 km/h 60 % 0 mm
11:34 9.2 °C 2.1 °C 1021.2 hPa North 16.7 km/h 8.9 km/h 61 % 0 mm
11:39 9.3 °C 2.4 °C 1021.2 hPa North 13 km/h 9.8 km/h 62 % 0 mm
11:44 9.3 °C 2.4 °C 1020.9 hPa North 11.1 km/h 7.1 km/h 62 % 0 mm
11:49 9.3 °C 2.7 °C 1020.9 hPa North 11.1 km/h 6.4 km/h 63 % 0 mm
11:54 9.5 °C 2.6 °C 1020.9 hPa North 12.9 km/h 5.6 km/h 62 % 0 mm
11:59 9.6 °C 2.6 °C 1020.9 hPa North 7.4 km/h 6.6 km/h 62 % 0 mm
12:04 9.8 °C 2.6 °C 1020.9 hPa North 14.8 km/h 8.5 km/h 61 % 0 mm
12:09 10.1 °C 2.7 °C 1020.9 hPa North 11.1 km/h 5.5 km/h 60 % 0 mm
12:14 10.2 °C 2.5 °C 1020.5 hPa North 7.4 km/h 2.1 km/h 59 % 0 mm
12:19 10.6 °C 3.2 °C 1020.5 hPa North 13 km/h 8.2 km/h 60 % 0 mm
12:24 10.8 °C 2.8 °C 1020.2 hPa North 9.3 km/h 3.9 km/h 58 % 0 mm
12:29 10.9 °C 2.9 °C 1020.5 hPa North 13 km/h 6.1 km/h 58 % 0 mm
12:34 10.9 °C 3 °C 1020.2 hPa NNW 9.3 km/h 5.5 km/h 58 % 0 mm
12:39 11.1 °C 2.8 °C 1020.2 hPa North 1.9 km/h 1.3 km/h 57 % 0 mm
12:44 11.5 °C 3 °C 1019.9 hPa NNW 7.4 km/h 6.1 km/h 56 % 0 mm
12:49 11.5 °C 3 °C 1019.9 hPa NNW 7.4 km/h 4.8 km/h 56 % 0 mm
12:54 11.6 °C 3.1 °C 1019.9 hPa NNW 11.1 km/h 9 km/h 56 % 0 mm
12:59 11.5 °C 3 °C 1019.5 hPa North 11.1 km/h 5.3 km/h 56 % 0 mm
13:04 11.7 °C 2.9 °C 1019.5 hPa North 13 km/h 6.6 km/h 55 % 0 mm
13:09 12 °C 3.5 °C 1019.2 hPa North 9.3 km/h 6.4 km/h 56 % 0 mm
13:14 12.2 °C 3.4 °C 1019.2 hPa North 5.6 km/h 3.4 km/h 55 % 0 mm
13:19 12.6 °C 3.7 °C 1019.2 hPa North 5.6 km/h 5 km/h 55 % 0 mm
13:24 12.8 °C 3.7 °C 1019.2 hPa North 7.4 km/h 4.7 km/h 54 % 0 mm
13:29 12.7 °C 3.1 °C 1018.8 hPa North 13 km/h 8 km/h 52 % 0 mm
13:34 12.4 °C 3.1 °C 1018.8 hPa North 7.4 km/h 2.1 km/h 53 % 0 mm
13:39 12.9 °C 3.3 °C 1018.8 hPa North 7.4 km/h 1.6 km/h 52 % 0 mm
13:44 13.1 °C 3.2 °C 1018.8 hPa North 9.7 km/h 8 km/h 51 % 0 mm
13:49 13.2 °C 3.6 °C 1018.8 hPa North 9.3 km/h 9 km/h 52 % 0 mm
13:54 13.2 °C 3.8 °C 1018.5 hPa North 9.3 km/h 3.9 km/h 53 % 0 mm
13:59 13.1 °C 3.7 °C 1018.8 hPa North 11.1 km/h 3.2 km/h 53 % 0 mm
14:04 12.9 °C 3.8 °C 1018.5 hPa North 11.1 km/h 9.2 km/h 54 % 0 mm
14:09 12.9 °C 4.4 °C 1018.5 hPa North 14.5 km/h 9.3 km/h 56 % 0 mm
14:14 13 °C 4.7 °C 1018.5 hPa North 9.7 km/h 6.4 km/h 57 % 0 mm
14:19 13.2 °C 4.4 °C 1018.5 hPa North 11.1 km/h 10.5 km/h 55 % 0 mm
14:24 13.1 °C 3.9 °C 1018.5 hPa North 11.1 km/h 5.8 km/h 54 % 0 mm
14:29 13.2 °C 4.1 °C 1018.5 hPa North 11.3 km/h 7.9 km/h 54 % 0 mm
14:34 13.2 °C 4.1 °C 1018.2 hPa North 18.5 km/h 10.1 km/h 54 % 0 mm
14:39 13.1 °C 3.7 °C 1018.2 hPa North 14.8 km/h 9 km/h 53 % 0 mm
14:44 13.1 °C 4.3 °C 1018.2 hPa North 13 km/h 7.7 km/h 55 % 0 mm
14:49 13.2 °C 4.1 °C 1018.2 hPa North 11.1 km/h 10.1 km/h 54 % 0 mm
14:54 13.1 °C 3.9 °C 1018.2 hPa North 16.7 km/h 10 km/h 54 % 0 mm
14:59 13.4 °C 4.5 °C 1018.2 hPa North 9.7 km/h 8.7 km/h 55 % 0 mm
15:04 13.4 °C 4.3 °C 1018.2 hPa North 12.9 km/h 8.9 km/h 54 % 0 mm
15:09 13.3 °C 3.9 °C 1018.2 hPa NNW 14.8 km/h 8.5 km/h 53 % 0 mm
15:14 13.3 °C 3.9 °C 1018.2 hPa NNW 14.8 km/h 11.3 km/h 53 % 0 mm
15:19 13.4 °C 4 °C 1018.2 hPa NNW 9.3 km/h 7.9 km/h 53 % 0 mm
15:24 13.3 °C 4.2 °C 1018.2 hPa NNW 9.3 km/h 5.6 km/h 54 % 0 mm
15:29 13 °C 3.9 °C 1018.2 hPa NNW 11.3 km/h 9.2 km/h 54 % 0 mm
15:34 12.7 °C 3.7 °C 1018.2 hPa NNW 14.8 km/h 9.2 km/h 54 % 0 mm
15:39 12.7 °C 4.1 °C 1018.2 hPa NNW 5.6 km/h 6.3 km/h 56 % 0 mm
15:44 12.6 °C 3.7 °C 1018.2 hPa NNW 7.4 km/h 5.6 km/h 55 % 0 mm
15:49 12.4 °C 4.1 °C 1017.8 hPa NNW 11.1 km/h 11.6 km/h 57 % 0 mm
15:54 12.4 °C 4.1 °C 1017.8 hPa NNW 11.3 km/h 7.6 km/h 57 % 0 mm
15:59 12.7 °C 4.3 °C 1017.8 hPa North 13 km/h 9.5 km/h 57 % 0 mm
16:04 12.9 °C 4.1 °C 1018.2 hPa North 18.5 km/h 8.2 km/h 55 % 0 mm
16:09 13.2 °C 4.3 °C 1018.2 hPa NNW 13 km/h 7.9 km/h 55 % 0 mm
16:14 13.2 °C 4.4 °C 1017.8 hPa NNW 14.8 km/h 11.1 km/h 55 % 0 mm
16:19 13.3 °C 4.7 °C 1017.8 hPa North 8 km/h 8.9 km/h 56 % 0 mm
16:24 13.2 °C 4.1 °C 1017.8 hPa NNW 16.7 km/h 12.2 km/h 54 % 0 mm
16:29 12.7 °C 3.9 °C 1017.8 hPa NNW 14.8 km/h 10.1 km/h 55 % 0 mm
16:34 12.8 °C 4.3 °C 1017.8 hPa North 14.8 km/h 10.9 km/h 56 % 0 mm
16:39 13 °C 4.2 °C 1017.8 hPa NNW 16.7 km/h 8.9 km/h 55 % 0 mm
16:44 12.9 °C 4.1 °C 1017.8 hPa North 14.8 km/h 12.9 km/h 55 % 0 mm
16:49 12.8 °C 4.2 °C 1017.8 hPa North 14.5 km/h 10.1 km/h 56 % 0 mm
16:54 12.7 °C 4.2 °C 1017.8 hPa North 13 km/h 8.4 km/h 56 % 0 mm
16:59 12.7 °C 4.2 °C 1017.8 hPa North 13 km/h 7.2 km/h 56 % 0 mm
17:04 12.6 °C 4.1 °C 1017.5 hPa North 14.8 km/h 7.7 km/h 56 % 0 mm
17:09 12.6 °C 4.1 °C 1017.5 hPa North 13 km/h 12.1 km/h 56 % 0 mm
17:14 12.5 °C 3.7 °C 1017.5 hPa North 8 km/h 7.6 km/h 55 % 0 mm
17:19 12.4 °C 3.8 °C 1017.5 hPa North 11.3 km/h 9 km/h 56 % 0 mm
17:24 12.3 °C 3.8 °C 1017.5 hPa North 14.8 km/h 6.4 km/h 56 % 0 mm
17:29 12.2 °C 3.7 °C 1017.5 hPa North 7.4 km/h 4.2 km/h 56 % 0 mm
17:34 12.2 °C 3.9 °C 1017.5 hPa North 5.6 km/h 3.9 km/h 57 % 0 mm
17:39 12 °C 3.7 °C 1017.5 hPa North 11.1 km/h 4.5 km/h 57 % 0 mm
17:44 11.7 °C 3.7 °C 1017.5 hPa North 7.4 km/h 6.8 km/h 58 % 0 mm
17:49 11.4 °C 3.4 °C 1017.5 hPa North 7.4 km/h 5.1 km/h 58 % 0 mm
17:54 11.3 °C 3.6 °C 1017.5 hPa North 5.6 km/h 5.3 km/h 59 % 0 mm
17:59 11.1 °C 3.6 °C 1017.5 hPa North 5.6 km/h 2.7 km/h 60 % 0 mm
18:04 10.9 °C 3.5 °C 1017.5 hPa North 5.6 km/h 4.8 km/h 60 % 0 mm
18:09 10.8 °C 3.6 °C 1017.5 hPa North 5.6 km/h 3.5 km/h 61 % 0 mm
18:14 10.7 °C 3.7 °C 1017.5 hPa North 5.6 km/h 3.4 km/h 62 % 0 mm
18:19 10.5 °C 3.5 °C 1017.5 hPa North 5.6 km/h 1.3 km/h 62 % 0 mm
18:24 10.3 °C 3.6 °C 1017.5 hPa North 3.7 km/h 1 km/h 63 % 0 mm
18:29 10.1 °C 3.6 °C 1017.5 hPa North 5.6 km/h 3.1 km/h 64 % 0 mm
18:34 9.9 °C 3.4 °C 1017.5 hPa North 5.6 km/h 3.5 km/h 64 % 0 mm
18:39 9.8 °C 3.5 °C 1017.5 hPa North 3.7 km/h 1.4 km/h 65 % 0 mm
18:44 9.6 °C 3.3 °C 1017.5 hPa North 3.7 km/h 2.6 km/h 65 % 0 mm
18:49 9.5 °C 3.4 °C 1017.5 hPa North 3.7 km/h 2.4 km/h 66 % 0 mm
18:54 9.3 °C 3.3 °C 1017.5 hPa North 3.7 km/h 1.1 km/h 66 % 0 mm
18:59 9.2 °C 3.3 °C 1017.5 hPa North 1.9 km/h   67 % 0 mm
19:04 9 °C 3.2 °C 1017.5 hPa North 1.9 km/h 0.3 km/h 67 % 0 mm
19:09 8.8 °C 3.2 °C 1017.5 hPa North 3.7 km/h 1.8 km/h 68 % 0 mm
19:14 8.7 °C 3.2 °C 1017.5 hPa North 1.9 km/h   68 % 0 mm
19:19 8.6 °C 3.2 °C 1017.5 hPa North 3.7 km/h 1.1 km/h 69 % 0 mm
19:24 8.5 °C 3.1 °C 1017.5 hPa North 5.6 km/h 3.1 km/h 69 % 0 mm
19:29 8.4 °C 3.3 °C 1017.5 hPa North 5.6 km/h 2.9 km/h 70 % 0 mm
19:34 8.4 °C 3.3 °C 1017.5 hPa North 5.6 km/h 2.4 km/h 70 % 0 mm
19:39 8.4 °C 3.2 °C 1017.2 hPa North 5.6 km/h 2.7 km/h 70 % 0 mm
19:44 8.4 °C 3.2 °C 1017.5 hPa North 3.7 km/h 2.7 km/h 70 % 0 mm
19:49 8.3 °C 3.2 °C 1017.5 hPa North 5.6 km/h 1.9 km/h 70 % 0 mm
19:54 8.3 °C 3.2 °C 1017.5 hPa North 3.7 km/h 2.6 km/h 70 % 0 mm
19:59 8.4 °C 3.2 °C 1017.5 hPa North 7.4 km/h 2.6 km/h 70 % 0 mm
20:04 8.4 °C 3.2 °C 1017.5 hPa North 5.6 km/h 2.3 km/h 70 % 0 mm
20:09 8.4 °C 3.2 °C 1017.5 hPa North 5.6 km/h 3.4 km/h 70 % 0 mm
20:14 8.4 °C 3.2 °C 1017.5 hPa North 5.6 km/h 5 km/h 70 % 0 mm
20:19 8.3 °C 3.2 °C 1017.5 hPa North 7.4 km/h 5.5 km/h 70 % 0 mm
20:24 8.2 °C 3.1 °C 1017.8 hPa North 5.6 km/h 1.9 km/h 70 % 0 mm
20:29 8.1 °C 2.9 °C 1017.8 hPa North 5.6 km/h 3.7 km/h 70 % 0 mm
20:34 8 °C 3.1 °C 1017.8 hPa North 7.4 km/h 4.2 km/h 71 % 0 mm
20:39 7.9 °C 3 °C 1017.8 hPa North 5.6 km/h 3.5 km/h 71 % 0 mm
20:44 8 °C 3.1 °C 1017.8 hPa North 3.7 km/h 2.6 km/h 71 % 0 mm
20:49 7.9 °C 3 °C 1017.8 hPa North 3.7 km/h 1.6 km/h 71 % 0 mm
20:54 7.8 °C 2.9 °C 1017.8 hPa North 3.7 km/h 3.4 km/h 71 % 0 mm
20:59 7.8 °C 2.8 °C 1017.8 hPa North 5.6 km/h 3.1 km/h 71 % 0 mm
21:04 7.7 °C 2.9 °C 1017.8 hPa North 5.6 km/h 3.1 km/h 72 % 0 mm
21:09 7.5 °C 2.8 °C 1017.5 hPa North 5.6 km/h 3.7 km/h 72 % 0 mm
21:14 7.4 °C 2.7 °C 1017.5 hPa North 5.6 km/h 3.5 km/h 72 % 0 mm
21:19 7.4 °C 2.9 °C 1017.5 hPa North 7.4 km/h 4.2 km/h 73 % 0 mm
21:24 7.4 °C 2.7 °C 1017.5 hPa North 7.4 km/h 4.3 km/h 72 % 0 mm
21:29 7.6 °C 2.8 °C 1017.5 hPa North 5.6 km/h 3.9 km/h 72 % 0 mm
21:34 7.6 °C 2.7 °C 1017.5 hPa North 5.6 km/h 3.2 km/h 71 % 0 mm
21:39 7.6 °C 2.6 °C 1017.5 hPa North 5.6 km/h 2.7 km/h 71 % 0 mm
21:44 7.5 °C 2.6 °C 1017.5 hPa North 5.6 km/h 3.1 km/h 71 % 0 mm
21:49 7.5 °C 2.6 °C 1017.5 hPa North 5.6 km/h 3.7 km/h 71 % 0 mm
21:54 7.4 °C 2.5 °C 1017.5 hPa North 5.6 km/h 3.2 km/h 71 % 0 mm
21:59 7.4 °C 2.4 °C 1017.5 hPa North 5.6 km/h 1.8 km/h 71 % 0 mm
22:04 7.3 °C 2.4 °C 1017.2 hPa North 3.7 km/h 2.6 km/h 71 % 0 mm
22:09 7.3 °C 2.2 °C 1017.2 hPa North 5.6 km/h 3.7 km/h 70 % 0 mm
22:14 7.2 °C 2.1 °C 1017.2 hPa North 3.7 km/h 2.6 km/h 70 % 0 mm
22:19 7.2 °C 2.1 °C 1017.2 hPa North 5.6 km/h 3.2 km/h 70 % 0 mm
22:24 7.3 °C 2.2 °C 1017.2 hPa North 5.6 km/h 2.3 km/h 70 % 0 mm
22:29 7.2 °C 2.1 °C 1017.2 hPa North 5.6 km/h 3.5 km/h 70 % 0 mm
22:34 7.2 °C 2.1 °C 1016.8 hPa North 3.7 km/h 2.4 km/h 70 % 0 mm
22:39 7.2 °C 2.1 °C 1016.8 hPa North 5.6 km/h 2.6 km/h 70 % 0 mm
22:44 7.2 °C 2.1 °C 1016.8 hPa North 5.6 km/h 3.2 km/h 70 % 0 mm
22:49 7.1 °C 2.2 °C 1016.5 hPa North 13 km/h 6 km/h 71 % 0 mm
22:54 7.2 °C 2.1 °C 1016.5 hPa North 5.6 km/h 5.1 km/h 70 % 0 mm
22:59 7.3 °C 2.2 °C 1016.5 hPa North 11.1 km/h 5.6 km/h 70 % 0 mm
23:04 7.5 °C 2.2 °C 1016.5 hPa North 11.1 km/h 6.1 km/h 69 % 0 mm
23:09 7.6 °C 2.3 °C 1016.5 hPa North 9.3 km/h 5.1 km/h 69 % 0 mm
23:14 7.7 °C 2.2 °C 1016.5 hPa North 9.3 km/h 4.8 km/h 68 % 0 mm
23:19 7.8 °C 2.1 °C 1016.5 hPa North 8 km/h 6.1 km/h 67 % 0 mm
23:24 7.8 °C 2.1 °C 1016.1 hPa North 11.1 km/h 10.1 km/h 67 % 0 mm
23:29 7.9 °C 1.9 °C 1016.1 hPa North 11.3 km/h 7.4 km/h 66 % 0 mm
23:34 7.9 °C 2 °C 1016.1 hPa North 9.3 km/h 7.4 km/h 66 % 0 mm
23:39 8 °C 2.1 °C 1016.1 hPa North 11.1 km/h 4.7 km/h 66 % 0 mm
23:44 7.9 °C 2 °C 1016.1 hPa North 7.4 km/h 5.1 km/h 66 % 0 mm
23:49 7.9 °C 1.9 °C 1016.1 hPa North 5.6 km/h 3.4 km/h 66 % 0 mm
23:54 7.8 °C 1.8 °C 1016.1 hPa North 7.4 km/h 5.5 km/h 66 % 0 mm
23:59 7.7 °C 1.8 °C 1016.1 hPa North 9.3 km/h 3.1 km/h 66 % 0 mm
Ararat Weather
Compliments of Weather Underground - 2.25 mb
Click here to send mail.


ABOUT

Live weather data from Ararat, Victoria, Australia, 3377
Data uploaded from Cumulus every 5 minutes to Weather Underground.
This site then downloads the raw data for formatting and display.
Metric and imperial data can be displayed. Graphs and historical data available.
Includes Sun and Moon times and rain image live from BOM.

Check out Ararat Weather on Facebook, Twitter and Google +

Help support ongoing costs by checking out the ads





Follow @AraratWeather